Time;durP1;ratioP1;P1;durP2;ratioP2;P2;SDS_P1;SDS_P2;PMS_P1;PMS_P2;Temp;Humidity;BMP_temperature;BMP_pressure;BME280_temperature;BME280_humidity;BME280_pressure;Samples;Min_cycle;Max_cycle;Signal;HPM_P1;HPM_P2
2023/02/04 00:00:35;;;;;;;15.23;8.05;;;10.20;96.70;;;;;;4975385;28;20105;-73
2023/02/04 00:03:04;;;;;;;5.35;2.75;;;10.20;96.70;;;;;;4981260;28;20097;-72
2023/02/04 00:05:33;;;;;;;13.32;7.13;;;10.20;96.70;;;;;;4984169;28;20054;-73
2023/02/04 00:08:01;;;;;;;16.13;8.45;;;10.10;96.70;;;;;;4979755;28;20110;-73
2023/02/04 00:10:31;;;;;;;11.38;4.72;;;10.10;96.70;;;;;;4985873;28;20591;-73
2023/02/04 00:13:01;;;;;;;25.17;14.40;;;10.10;96.70;;;;;;4979540;28;20055;-73
2023/02/04 00:15:29;;;;;;;20.10;11.45;;;10.10;96.70;;;;;;4983309;28;20514;-73
2023/02/04 00:17:57;;;;;;;15.18;7.85;;;10.10;96.70;;;;;;4969509;28;20045;-73
2023/02/04 00:20:26;;;;;;;12.77;6.70;;;10.10;96.70;;;;;;4985326;28;20062;-73
2023/02/04 00:22:55;;;;;;;8.73;3.95;;;10.10;96.70;;;;;;4985780;28;20101;-73
2023/02/04 00:25:23;;;;;;;6.15;3.35;;;10.00;96.70;;;;;;4980466;28;20481;-74
2023/02/04 00:27:51;;;;;;;7.90;3.67;;;10.10;96.70;;;;;;4986833;28;20392;-74
2023/02/04 00:30:21;;;;;;;6.30;4.03;;;10.00;96.70;;;;;;4985295;28;20427;-73
2023/02/04 00:32:53;;;;;;;8.18;3.17;;;10.00;96.70;;;;;;4985162;28;20054;-74
2023/02/04 00:35:22;;;;;;;4.78;3.08;;;10.00;96.70;;;;;;4982327;28;20390;-74
2023/02/04 00:37:52;;;;;;;8.70;3.35;;;10.00;96.70;;;;;;4981107;28;20050;-74
2023/02/04 00:40:20;;;;;;;6.18;2.83;;;9.90;96.70;;;;;;4984568;28;20382;-72
2023/02/04 00:42:48;;;;;;;4.32;2.70;;;10.00;96.70;;;;;;4981957;28;20053;-74
2023/02/04 00:45:16;;;;;;;6.32;3.35;;;10.00;96.70;;;;;;4985034;28;20038;-73
2023/02/04 00:47:46;;;;;;;5.50;2.85;;;10.00;96.70;;;;;;4981598;28;20073;-73
2023/02/04 00:50:14;;;;;;;7.32;2.88;;;10.00;96.70;;;;;;4968246;28;20057;-74
2023/02/04 00:52:43;;;;;;;7.30;2.97;;;10.00;96.70;;;;;;4982622;28;20050;-73
2023/02/04 00:55:14;;;;;;;8.20;4.10;;;10.00;96.70;;;;;;4982306;28;20605;-73
2023/02/04 00:57:45;;;;;;;3.95;2.80;;;10.00;96.70;;;;;;4965369;28;20074;-74
2023/02/04 01:00:14;;;;;;;8.13;3.80;;;10.00;96.70;;;;;;4983101;28;20058;-73
2023/02/04 01:02:45;;;;;;;5.25;2.90;;;9.90;96.70;;;;;;4985562;28;20049;-73
2023/02/04 01:05:13;;;;;;;6.32;3.05;;;9.90;96.70;;;;;;4979134;28;20050;-74
2023/02/04 01:07:41;;;;;;;8.30;4.32;;;9.90;96.70;;;;;;4979415;28;20178;-74
2023/02/04 01:10:10;;;;;;;6.95;3.53;;;9.80;96.70;;;;;;4983789;28;20058;-74
2023/02/04 01:12:38;;;;;;;5.05;3.38;;;9.80;96.70;;;;;;4984827;28;20084;-75
2023/02/04 01:15:07;;;;;;;7.00;3.92;;;9.80;96.70;;;;;;4983961;28;20050;-73
2023/02/04 01:17:35;;;;;;;7.13;3.50;;;9.80;96.70;;;;;;4982767;28;20137;-73
2023/02/04 01:20:06;;;;;;;6.25;3.50;;;9.70;96.70;;;;;;4985900;28;20047;-74
2023/02/04 01:22:34;;;;;;;7.63;3.75;;;9.70;96.70;;;;;;4978426;28;20055;-73
2023/02/04 01:25:02;;;;;;;6.07;4.03;;;9.70;96.70;;;;;;4997547;28;20046;-73
2023/02/04 01:27:42;;;;;;;9.50;5.10;;;9.60;96.70;;;;;;4976389;28;20050;-73
2023/02/04 01:30:13;;;;;;;11.13;5.13;;;9.60;96.70;;;;;;4975278;28;20046;-73
2023/02/04 01:32:41;;;;;;;7.65;4.63;;;9.50;96.70;;;;;;4979774;28;20050;-72
2023/02/04 01:35:10;;;;;;;6.90;4.75;;;9.40;96.70;;;;;;4983754;28;20052;-74
2023/02/04 01:37:38;;;;;;;8.90;4.20;;;9.40;96.70;;;;;;4975727;28;20070;-72
2023/02/04 01:40:09;;;;;;;9.32;4.22;;;9.40;96.70;;;;;;4965123;28;20556;-73
2023/02/04 01:42:37;;;;;;;7.13;4.72;;;9.40;96.70;;;;;;4983245;28;20055;-73
2023/02/04 01:45:08;;;;;;;8.20;5.20;;;9.30;96.70;;;;;;4983672;28;20056;-73
2023/02/04 01:47:38;;;;;;;7.95;5.75;;;9.30;96.70;;;;;;4983478;28;20500;-73
2023/02/04 01:50:09;;;;;;;11.48;6.05;;;9.30;96.70;;;;;;4977621;28;20101;-73
2023/02/04 01:52:39;;;;;;;8.07;4.93;;;9.30;96.70;;;;;;4971875;28;20102;-73
2023/02/04 01:55:13;;;;;;;9.63;5.45;;;9.30;96.70;;;;;;4982885;28;20050;-72
2023/02/04 01:57:42;;;;;;;7.40;5.68;;;9.30;96.70;;;;;;4980394;28;20057;-73
2023/02/04 02:00:15;;;;;;;6.65;4.30;;;9.30;96.70;;;;;;4981371;28;20050;-73
2023/02/04 02:02:45;;;;;;;9.20;4.90;;;9.20;96.70;;;;;;4982487;28;20100;-73
2023/02/04 02:05:16;;;;;;;9.73;4.93;;;9.20;96.70;;;;;;4981636;28;20062;-73
2023/02/04 02:07:47;;;;;;;9.02;4.82;;;9.10;96.70;;;;;;4982169;28;20062;-72
2023/02/04 02:10:17;;;;;;;10.63;5.28;;;9.10;96.70;;;;;;4976201;28;20179;-72
2023/02/04 02:12:46;;;;;;;7.90;4.78;;;9.00;96.70;;;;;;4982922;28;20385;-73
2023/02/04 02:15:15;;;;;;;7.22;4.30;;;9.00;96.70;;;;;;4982619;28;20500;-73
2023/02/04 02:17:43;;;;;;;6.85;4.32;;;8.90;96.70;;;;;;4983178;28;20056;-73
2023/02/04 02:20:14;;;;;;;8.32;4.80;;;8.90;96.70;;;;;;4980387;28;20038;-73
2023/02/04 02:22:54;;;;;;;5.63;3.97;;;8.90;96.70;;;;;;4982535;28;20050;-73
2023/02/04 02:25:24;;;;;;;6.18;4.25;;;8.80;96.70;;;;;;4982133;28;20100;-74
2023/02/04 02:27:52;;;;;;;5.45;4.15;;;8.80;96.70;;;;;;4983479;28;20054;-73
2023/02/04 02:30:21;;;;;;;6.70;4.45;;;8.80;96.70;;;;;;4976828;28;20682;-72
2023/02/04 02:32:51;;;;;;;6.85;4.32;;;8.80;96.70;;;;;;4982606;28;20345;-73
2023/02/04 02:35:20;;;;;;;8.25;4.57;;;8.70;96.70;;;;;;4984436;28;20101;-73
2023/02/04 02:37:49;;;;;;;7.25;4.40;;;8.50;96.70;;;;;;4980998;28;20053;-73
2023/02/04 02:40:18;;;;;;;7.97;5.18;;;8.40;96.70;;;;;;4982315;28;20523;-73
2023/02/04 02:42:50;;;;;;;8.48;4.78;;;8.40;96.70;;;;;;4975871;28;20042;-73
2023/02/04 02:45:23;;;;;;;6.82;4.25;;;8.40;96.70;;;;;;4966846;28;20046;-73
2023/02/04 02:47:52;;;;;;;5.65;4.22;;;8.40;96.70;;;;;;4982912;28;20046;-73
2023/02/04 02:50:22;;;;;;;8.23;4.72;;;8.40;96.70;;;;;;4982442;28;20047;-72
2023/02/04 02:52:52;;;;;;;5.05;3.78;;;8.40;96.70;;;;;;4979116;28;20057;-73
2023/02/04 02:55:23;;;;;;;7.70;4.90;;;8.40;96.70;;;;;;4981984;28;20050;-73
2023/02/04 02:57:55;;;;;;;9.10;3.63;;;8.50;96.70;;;;;;4983984;28;20133;-73
2023/02/04 03:00:25;;;;;;;6.65;3.40;;;8.40;96.70;;;;;;4980452;28;20073;-73
2023/02/04 03:02:59;;;;;;;6.20;3.47;;;8.30;96.70;;;;;;4996096;28;20056;-73
2023/02/04 03:05:31;;;;;;;4.30;3.00;;;8.40;96.70;;;;;;4974785;28;20145;-73
2023/02/04 03:08:00;;;;;;;5.18;3.55;;;8.40;96.70;;;;;;4981378;28;20054;-73
2023/02/04 03:10:28;;;;;;;6.00;3.05;;;8.40;96.70;;;;;;4979661;28;20397;-73
2023/02/04 03:12:59;;;;;;;4.07;2.80;;;8.30;96.70;;;;;;4966462;28;20200;-73
2023/02/04 03:15:27;;;;;;;4.95;3.20;;;8.40;96.70;;;;;;4979179;28;20066;-73
2023/02/04 03:17:58;;;;;;;6.45;2.97;;;8.40;96.70;;;;;;4973939;28;20065;-73
2023/02/04 03:20:29;;;;;;;5.45;3.05;;;8.40;96.70;;;;;;4981763;28;20054;-73
2023/02/04 03:22:58;;;;;;;7.25;3.17;;;8.40;96.70;;;;;;4981903;28;20057;-73
2023/02/04 03:25:27;;;;;;;5.90;3.28;;;8.40;96.70;;;;;;4981705;28;20073;-72
2023/02/04 03:27:58;;;;;;;4.20;2.50;;;8.40;96.70;;;;;;4975191;28;20181;-73
2023/02/04 03:30:27;;;;;;;6.47;3.10;;;8.40;96.70;;;;;;4980176;28;20046;-73
2023/02/04 03:32:56;;;;;;;6.70;2.95;;;8.40;96.70;;;;;;4982372;28;20133;-73
2023/02/04 03:35:24;;;;;;;5.60;2.92;;;8.30;96.70;;;;;;4982072;28;20077;-73
2023/02/04 03:37:52;;;;;;;6.72;3.00;;;8.20;96.70;;;;;;4982175;28;20046;-73
2023/02/04 03:40:22;;;;;;;5.57;3.17;;;8.20;96.70;;;;;;4980866;28;20062;-73
2023/02/04 03:42:51;;;;;;;4.72;2.72;;;8.30;96.70;;;;;;4983523;28;20057;-72
2023/02/04 03:45:21;;;;;;;5.68;2.90;;;8.20;96.70;;;;;;4986349;28;20543;-73
2023/02/04 03:47:49;;;;;;;9.13;2.95;;;8.20;96.70;;;;;;4985692;28;20129;-73
2023/02/04 03:50:17;;;;;;;3.58;2.75;;;8.20;96.70;;;;;;4984064;28;20047;-73
2023/02/04 03:52:47;;;;;;;5.85;2.97;;;8.30;96.70;;;;;;4986997;28;20105;-73
2023/02/04 03:55:15;;;;;;;4.97;2.65;;;8.20;96.70;;;;;;4982116;28;20038;-73
2023/02/04 03:57:44;;;;;;;6.32;2.75;;;8.20;96.70;;;;;;4987035;28;20069;-73
2023/02/04 04:00:13;;;;;;;5.10;2.70;;;8.20;96.70;;;;;;4977765;28;20134;-73
2023/02/04 04:02:43;;;;;;;5.05;2.50;;;8.20;96.70;;;;;;4965833;28;20126;-73
2023/02/04 04:05:11;;;;;;;3.47;2.63;;;8.20;96.70;;;;;;4984183;28;20574;-73
2023/02/04 04:07:39;;;;;;;4.53;2.70;;;8.20;96.70;;;;;;4986479;28;20081;-74
2023/02/04 04:10:08;;;;;;;5.53;2.63;;;8.10;96.70;;;;;;4985964;28;20046;-73
2023/02/04 04:12:36;;;;;;;6.78;2.83;;;8.00;96.70;;;;;;4984898;28;20459;-73
2023/02/04 04:15:04;;;;;;;4.50;2.60;;;8.00;96.70;;;;;;4978199;28;20672;-73
2023/02/04 04:17:33;;;;;;;3.38;2.53;;;8.00;96.70;;;;;;4985280;28;20076;-73
2023/02/04 04:20:03;;;;;;;4.35;2.85;;;8.00;96.70;;;;;;4986303;28;20125;-73
2023/02/04 04:22:31;;;;;;;4.68;2.90;;;8.00;96.70;;;;;;4977067;28;20050;-73
2023/02/04 04:24:59;;;;;;;4.80;2.80;;;7.90;96.70;;;;;;4967418;28;20077;-73
2023/02/04 04:27:28;;;;;;;4.55;3.28;;;7.90;96.70;;;;;;4986921;28;20052;-73
2023/02/04 04:29:57;;;;;;;6.00;2.88;;;7.90;96.70;;;;;;4983271;28;20508;-73
2023/02/04 04:32:25;;;;;;;9.38;3.50;;;7.90;96.70;;;;;;4985084;28;20170;-73
2023/02/04 04:34:53;;;;;;;5.30;3.00;;;7.90;96.70;;;;;;4984578;28;20109;-73
2023/02/04 04:37:23;;;;;;;6.70;3.22;;;7.80;96.70;;;;;;4983149;28;20074;-73
2023/02/04 04:39:51;;;;;;;5.22;3.10;;;7.80;96.70;;;;;;4984647;28;20050;-73
2023/02/04 04:42:19;;;;;;;4.55;2.60;;;7.90;96.70;;;;;;4985128;28;20056;-74
2023/02/04 04:44:47;;;;;;;6.47;2.80;;;7.80;96.70;;;;;;4984547;28;20042;-74
2023/02/04 04:47:15;;;;;;;4.10;3.22;;;7.90;96.70;;;;;;4982480;28;20078;-73
2023/02/04 04:49:43;;;;;;;6.63;3.17;;;7.90;96.70;;;;;;4977894;28;20049;-73
2023/02/04 04:52:12;;;;;;;7.68;3.13;;;7.90;96.70;;;;;;4984369;28;20760;-74
2023/02/04 04:54:41;;;;;;;5.50;3.15;;;7.90;96.70;;;;;;4983404;28;20065;-73
2023/02/04 04:57:09;;;;;;;8.27;3.67;;;7.90;96.70;;;;;;4977574;28;20516;-73
2023/02/04 04:59:38;;;;;;;7.50;3.45;;;7.90;96.70;;;;;;4978709;28;20501;-73
2023/02/04 05:02:06;;;;;;;8.05;4.00;;;7.90;96.70;;;;;;4981773;28;20046;-73
2023/02/04 05:04:34;;;;;;;5.53;3.28;;;7.90;96.70;;;;;;4985663;28;20066;-73
2023/02/04 05:07:02;;;;;;;5.60;3.33;;;7.90;96.70;;;;;;4985623;28;20393;-73
2023/02/04 05:09:30;;;;;;;4.03;3.20;;;7.90;96.70;;;;;;4984193;28;20045;-72
2023/02/04 05:12:01;;;;;;;7.38;3.83;;;7.90;96.70;;;;;;4984007;28;20053;-72
2023/02/04 05:14:29;;;;;;;5.20;3.30;;;7.90;96.70;;;;;;4978379;28;20468;-73
2023/02/04 05:16:57;;;;;;;4.45;3.30;;;8.00;96.70;;;;;;4977989;28;20428;-73
2023/02/04 05:19:26;;;;;;;7.22;3.55;;;7.90;96.70;;;;;;4976339;28;20508;-73
2023/02/04 05:21:54;;;;;;;5.28;3.47;;;7.90;96.70;;;;;;4984436;28;20046;-73
2023/02/04 05:24:22;;;;;;;7.32;4.18;;;8.00;96.70;;;;;;4982007;28;20125;-74
2023/02/04 05:26:50;;;;;;;6.53;3.85;;;7.70;96.70;;;;;;4983552;28;21033;-73
2023/02/04 05:29:20;;;;;;;6.03;4.45;;;7.70;96.70;;;;;;4979118;28;20280;-73
2023/02/04 05:31:48;;;;;;;5.43;4.05;;;7.80;96.70;;;;;;4985651;28;20061;-73
2023/02/04 05:34:16;;;;;;;6.22;4.95;;;7.90;96.70;;;;;;4985002;28;20053;-74
2023/02/04 05:36:44;;;;;;;6.10;3.92;;;7.80;96.70;;;;;;4985358;28;20049;-74
2023/02/04 05:39:12;;;;;;;9.90;4.45;;;7.80;96.70;;;;;;4976535;28;20038;-72
2023/02/04 05:41:40;;;;;;;10.63;7.10;;;7.90;96.70;;;;;;4984536;28;20054;-74
2023/02/04 05:44:08;;;;;;;6.72;4.25;;;7.90;96.70;;;;;;4981262;28;20086;-73
2023/02/04 05:46:38;;;;;;;5.43;3.80;;;7.80;96.70;;;;;;4983699;28;20467;-73
2023/02/04 05:49:07;;;;;;;7.38;4.05;;;7.70;96.70;;;;;;4984111;28;20347;-73
2023/02/04 05:51:34;;;;;;;6.35;4.15;;;7.80;96.70;;;;;;4965431;28;20072;-73
2023/02/04 05:54:03;;;;;;;5.53;3.88;;;7.80;96.70;;;;;;4983021;28;20054;-73
2023/02/04 05:56:31;;;;;;;6.07;4.00;;;7.90;96.70;;;;;;4982626;28;20050;-73
2023/02/04 05:58:59;;;;;;;6.95;4.32;;;7.90;96.70;;;;;;4984823;28;20038;-73
2023/02/04 06:01:27;;;;;;;9.18;4.80;;;7.90;96.70;;;;;;4981427;28;20045;-73
2023/02/04 06:03:56;;;;;;;5.75;4.38;;;7.90;96.70;;;;;;4980280;28;20093;-73
2023/02/04 06:06:24;;;;;;;5.88;3.92;;;8.00;96.70;;;;;;4983406;28;20057;-72
2023/02/04 06:08:52;;;;;;;5.82;3.40;;;8.00;96.70;;;;;;4984374;28;20116;-72
2023/02/04 06:11:20;;;;;;;11.13;3.85;;;8.10;96.70;;;;;;4982140;28;20057;-74
2023/02/04 06:13:48;;;;;;;5.28;3.28;;;8.20;96.70;;;;;;4976909;28;20046;-74
2023/02/04 06:16:16;;;;;;;6.05;3.38;;;8.20;96.70;;;;;;4983246;28;20050;-74
2023/02/04 06:18:44;;;;;;;4.63;3.28;;;8.20;96.70;;;;;;4981622;28;20508;-74
2023/02/04 06:21:14;;;;;;;5.25;3.67;;;8.10;96.70;;;;;;4980311;28;20519;-75
2023/02/04 06:23:42;;;;;;;5.35;3.15;;;8.10;96.70;;;;;;4983669;28;20469;-75
2023/02/04 06:26:11;;;;;;;8.90;3.80;;;8.20;96.70;;;;;;4982033;28;20058;-74
2023/02/04 06:28:39;;;;;;;6.68;3.95;;;8.20;96.70;;;;;;4976455;28;20580;-74
2023/02/04 06:31:07;;;;;;;7.18;3.85;;;8.30;96.70;;;;;;4983408;28;20416;-74
2023/02/04 06:33:36;;;;;;;9.52;4.18;;;8.30;96.70;;;;;;4982948;28;20491;-72
2023/02/04 06:36:04;;;;;;;6.82;3.65;;;8.30;96.70;;;;;;4982157;28;20070;-73
2023/02/04 06:38:33;;;;;;;4.35;3.33;;;8.30;96.70;;;;;;4982705;28;20487;-73
2023/02/04 06:41:02;;;;;;;6.13;3.58;;;8.30;96.70;;;;;;4977260;28;20050;-72
2023/02/04 06:43:30;;;;;;;6.78;4.05;;;8.30;96.70;;;;;;4982180;28;20073;-73
2023/02/04 06:45:57;;;;;;;5.57;3.50;;;8.40;96.70;;;;;;4982254;28;20038;-74
2023/02/04 06:48:26;;;;;;;5.93;3.50;;;8.40;96.70;;;;;;4983046;28;20161;-73
2023/02/04 06:50:56;;;;;;;8.60;3.70;;;8.40;96.70;;;;;;4975819;28;20042;-73
2023/02/04 06:53:24;;;;;;;9.70;5.57;;;8.40;96.70;;;;;;4983875;28;20050;-73
2023/02/04 06:55:53;;;;;;;10.27;6.10;;;8.40;96.70;;;;;;4981100;28;20516;-73
2023/02/04 06:58:21;;;;;;;6.25;3.90;;;8.40;96.70;;;;;;4978652;28;20050;-74
2023/02/04 07:00:49;;;;;;;7.75;3.95;;;8.50;96.70;;;;;;4980230;28;20058;-74
2023/02/04 07:03:17;;;;;;;7.05;3.90;;;8.50;96.70;;;;;;4981784;28;20038;-73
2023/02/04 07:05:45;;;;;;;7.10;4.93;;;8.50;96.70;;;;;;4976681;28;20186;-74
2023/02/04 07:08:13;;;;;;;7.88;4.40;;;8.50;96.70;;;;;;4980334;28;20046;-73
2023/02/04 07:10:42;;;;;;;8.05;4.15;;;8.60;96.70;;;;;;4981974;28;20220;-74
2023/02/04 07:13:11;;;;;;;5.93;3.50;;;8.60;96.70;;;;;;4981467;28;20066;-74
2023/02/04 07:15:39;;;;;;;5.95;3.45;;;8.60;96.70;;;;;;4983022;28;20053;-73
2023/02/04 07:18:07;;;;;;;4.93;2.92;;;8.60;96.70;;;;;;4963161;28;20595;-73
2023/02/04 07:20:36;;;;;;;5.82;3.08;;;8.60;96.70;;;;;;4982019;28;20105;-74
2023/02/04 07:23:04;;;;;;;3.55;2.78;;;8.60;96.70;;;;;;4966161;28;20047;-73
2023/02/04 07:25:32;;;;;;;4.25;3.00;;;8.70;96.70;;;;;;4976555;28;20452;-72
2023/02/04 07:28:02;;;;;;;4.57;3.20;;;8.70;96.70;;;;;;4982015;28;20042;-73
2023/02/04 07:30:32;;;;;;;5.50;2.70;;;8.70;96.70;;;;;;4982655;28;20061;-73
2023/02/04 07:33:00;;;;;;;4.53;2.85;;;8.70;96.70;;;;;;4974314;28;20595;-74
2023/02/04 07:35:28;;;;;;;6.35;3.13;;;8.70;96.70;;;;;;4965715;28;20050;-72
2023/02/04 07:37:56;;;;;;;5.93;3.92;;;8.80;96.70;;;;;;4981519;28;20105;-72
2023/02/04 07:40:24;;;;;;;5.30;3.90;;;8.80;96.70;;;;;;4980915;28;20112;-73
2023/02/04 07:42:52;;;;;;;6.70;4.75;;;8.70;96.70;;;;;;4983084;28;20050;-73
2023/02/04 07:45:22;;;;;;;7.30;4.30;;;8.50;96.70;;;;;;4965959;28;20811;-73
2023/02/04 07:47:52;;;;;;;5.18;3.80;;;8.60;96.70;;;;;;4983501;28;20638;-73
2023/02/04 07:50:20;;;;;;;7.03;4.13;;;8.70;96.70;;;;;;4969853;28;20050;-72
2023/02/04 07:52:48;;;;;;;6.45;4.15;;;8.80;96.70;;;;;;4986975;28;20046;-73
2023/02/04 07:55:17;;;;;;;8.98;4.78;;;8.90;96.70;;;;;;4978969;28;20437;-74
2023/02/04 07:57:45;;;;;;;8.90;4.18;;;9.00;96.70;;;;;;4973591;28;20043;-72
2023/02/04 08:00:15;;;;;;;6.32;4.72;;;9.00;96.70;;;;;;4978660;28;20054;-73
2023/02/04 08:02:43;;;;;;;8.05;4.85;;;9.10;96.70;;;;;;4981365;28;20054;-73
2023/02/04 08:05:13;;;;;;;7.70;4.70;;;9.10;96.70;;;;;;4965440;28;20042;-75
2023/02/04 08:07:41;;;;;;;6.50;5.32;;;9.20;96.70;;;;;;4980091;28;20097;-75
2023/02/04 08:10:10;;;;;;;9.98;5.63;;;9.20;96.70;;;;;;4982121;28;20531;-76
2023/02/04 08:12:38;;;;;;;18.52;12.70;;;9.30;96.70;;;;;;4982148;28;20058;-74
2023/02/04 08:15:07;;;;;;;8.68;5.72;;;9.30;96.70;;;;;;4983258;28;20054;-74
2023/02/04 08:17:35;;;;;;;10.80;6.95;;;9.40;96.70;;;;;;4981452;28;20536;-74
2023/02/04 08:20:04;;;;;;;43.60;11.10;;;9.50;96.70;;;;;;4981343;28;20038;-75
2023/02/04 08:22:34;;;;;;;17.88;7.07;;;9.50;96.70;;;;;;4981414;28;20562;-75
2023/02/04 08:25:02;;;;;;;11.88;6.40;;;9.60;96.70;;;;;;4982416;28;20061;-75
2023/02/04 08:27:30;;;;;;;35.88;10.70;;;9.60;96.70;;;;;;4983400;28;20791;-73
2023/02/04 08:29:58;;;;;;;41.50;24.20;;;9.70;96.70;;;;;;4989443;28;20129;-75
2023/02/04 08:32:28;;;;;;;28.75;12.57;;;9.80;96.70;;;;;;4972479;28;20081;-73
2023/02/04 08:34:56;;;;;;;17.52;8.82;;;9.80;96.70;;;;;;4989253;28;20508;-73
2023/02/04 08:37:24;;;;;;;12.25;7.63;;;9.90;96.70;;;;;;4989271;28;20042;-73
2023/02/04 08:39:53;;;;;;;10.10;6.25;;;9.90;96.70;;;;;;4987906;28;20137;-73
2023/02/04 08:42:21;;;;;;;10.18;6.95;;;9.90;96.70;;;;;;4988806;28;20757;-72
2023/02/04 08:44:49;;;;;;;10.98;6.13;;;10.00;96.70;;;;;;4993628;28;20041;-73
2023/02/04 08:47:17;;;;;;;9.57;5.43;;;10.00;96.70;;;;;;4993644;28;20040;-74
2023/02/04 08:49:45;;;;;;;10.80;4.90;;;10.00;96.70;;;;;;4986143;28;20089;-73
2023/02/04 08:52:14;;;;;;;8.50;5.13;;;10.00;96.70;;;;;;4985175;28;20138;-73
2023/02/04 08:54:42;;;;;;;9.13;5.07;;;10.00;96.70;;;;;;4983860;28;20101;-73
2023/02/04 08:57:11;;;;;;;8.70;6.10;;;10.00;96.70;;;;;;4968271;28;20050;-73
2023/02/04 08:59:39;;;;;;;7.93;6.03;;;10.00;96.70;;;;;;4984391;28;20039;-73
2023/02/04 09:02:09;;;;;;;10.27;6.88;;;10.00;96.70;;;;;;4981245;28;20085;-72
2023/02/04 09:04:37;;;;;;;12.05;6.30;;;10.00;96.70;;;;;;4999421;28;20474;-72
2023/02/04 09:07:05;;;;;;;10.98;6.78;;;10.10;96.70;;;;;;4984266;28;20082;-70
2023/02/04 09:09:33;;;;;;;15.38;7.88;;;10.10;96.70;;;;;;4986032;28;20042;-73
2023/02/04 09:12:02;;;;;;;25.73;18.10;;;10.10;96.70;;;;;;4984017;28;20499;-73
2023/02/04 09:14:31;;;;;;;18.27;11.32;;;10.10;96.70;;;;;;4983899;28;20046;-74
2023/02/04 09:17:00;;;;;;;13.57;8.63;;;10.10;96.70;;;;;;4981189;28;20049;-75
2023/02/04 09:19:28;;;;;;;12.70;7.90;;;10.10;96.70;;;;;;4982154;28;20861;-74
2023/02/04 09:21:56;;;;;;;11.85;8.30;;;10.20;96.70;;;;;;4980310;28;20050;-74
2023/02/04 09:24:24;;;;;;;13.60;7.38;;;10.10;96.70;;;;;;4983303;28;20045;-74
2023/02/04 09:26:52;;;;;;;12.50;8.10;;;10.10;96.70;;;;;;4981002;28;20103;-75
2023/02/04 09:29:20;;;;;;;13.75;7.32;;;10.10;96.70;;;;;;4984216;28;20121;-74
2023/02/04 09:31:49;;;;;;;14.23;7.57;;;10.10;96.70;;;;;;4982289;28;20404;-74
2023/02/04 09:34:17;;;;;;;12.82;7.45;;;10.20;96.70;;;;;;4975097;28;20129;-74
2023/02/04 09:36:45;;;;;;;11.82;8.05;;;10.20;96.70;;;;;;4977454;28;20061;-76
2023/02/04 09:39:14;;;;;;;13.07;8.38;;;10.20;96.70;;;;;;4984078;28;20042;-76
2023/02/04 09:41:42;;;;;;;13.60;8.95;;;10.30;96.70;;;;;;4983544;28;20046;-77
2023/02/04 09:44:13;;;;;;;12.68;7.72;;;10.30;96.70;;;;;;4960100;28;20042;-77
2023/02/04 09:46:46;;;;;;;13.30;8.20;;;10.30;96.70;;;;;;4983638;28;20048;-75
2023/02/04 09:49:16;;;;;;;12.07;7.82;;;10.30;96.70;;;;;;4982910;28;20058;-76
2023/02/04 09:51:46;;;;;;;12.98;8.27;;;10.30;96.70;;;;;;4985090;28;20046;-75
2023/02/04 09:54:16;;;;;;;14.30;8.23;;;10.40;96.70;;;;;;4983034;28;20046;-76
2023/02/04 09:56:45;;;;;;;14.77;9.15;;;10.30;96.70;;;;;;4982078;28;20104;-76
2023/02/04 09:59:14;;;;;;;11.50;8.05;;;10.40;96.70;;;;;;4983041;28;20046;-75
2023/02/04 10:01:42;;;;;;;11.80;8.10;;;10.40;96.70;;;;;;4982938;28;20524;-78
2023/02/04 10:04:13;;;;;;;14.20;8.25;;;10.40;96.70;;;;;;4982944;28;20051;-74
2023/02/04 10:06:43;;;;;;;13.65;8.32;;;10.40;96.70;;;;;;4984153;28;20070;-78
2023/02/04 10:09:13;;;;;;;12.77;8.50;;;10.50;96.70;;;;;;4984126;28;20046;-77
2023/02/04 10:11:43;;;;;;;12.23;8.80;;;10.50;96.70;;;;;;4982453;28;20061;-75
2023/02/04 10:14:15;;;;;;;13.23;9.23;;;10.50;96.70;;;;;;4984326;28;20078;-76
2023/02/04 10:16:47;;;;;;;15.27;8.63;;;10.60;96.70;;;;;;4982473;28;20141;-75
2023/02/04 10:19:15;;;;;;;15.27;9.30;;;10.60;96.70;;;;;;4982797;28;20054;-76
2023/02/04 10:21:45;;;;;;;13.68;9.50;;;10.70;96.70;;;;;;4983085;28;20210;-76
2023/02/04 10:24:16;;;;;;;14.80;9.48;;;10.70;96.70;;;;;;4981745;28;20042;-74
2023/02/04 10:26:44;;;;;;;12.43;9.32;;;10.70;96.70;;;;;;4974373;28;20046;-76
2023/02/04 10:29:15;;;;;;;17.48;10.13;;;10.80;96.70;;;;;;4984140;28;20042;-77
2023/02/04 10:31:45;;;;;;;19.25;11.45;;;10.90;96.70;;;;;;4984043;28;20523;-77
2023/02/04 10:34:15;;;;;;;18.50;11.98;;;11.00;96.70;;;;;;4982901;28;20408;-74
2023/02/04 10:36:48;;;;;;;19.75;13.73;;;11.20;96.70;;;;;;4983027;28;20046;-76
2023/02/04 10:39:18;;;;;;;25.00;16.45;;;11.30;96.70;;;;;;4983832;28;20108;-75
2023/02/04 10:41:48;;;;;;;22.77;17.00;;;11.50;96.70;;;;;;4983215;28;20054;-76
2023/02/04 10:44:18;;;;;;;23.30;17.25;;;11.70;96.70;;;;;;4983676;28;20141;-74
2023/02/04 10:46:47;;;;;;;25.77;17.02;;;11.90;96.70;;;;;;4982524;28;20445;-75
2023/02/04 10:49:18;;;;;;;23.17;17.38;;;12.00;96.70;;;;;;4982647;28;20113;-78
2023/02/04 10:51:49;;;;;;;23.90;16.92;;;12.20;96.70;;;;;;4982487;28;20069;-78
2023/02/04 10:54:31;;;;;;;26.67;15.85;;;12.40;96.70;;;;;;4982118;28;20861;-77
2023/02/04 10:57:08;;;;;;;21.80;16.10;;;12.40;96.70;;;;;;4981908;28;20101;-75
2023/02/04 10:59:36;;;;;;;23.17;16.73;;;12.60;96.70;;;;;;4974547;28;20042;-74
2023/02/04 11:02:36;;;;;;;19.67;15.80;;;12.60;96.70;;;;;;4981792;28;20317;-75
2023/02/04 11:05:10;;;;;;;22.48;15.10;;;12.90;96.70;;;;;;4982734;28;20128;-75
2023/02/04 11:07:40;;;;;;;19.08;14.23;;;13.10;96.70;;;;;;4974847;28;20073;-76
2023/02/04 11:10:13;;;;;;;15.55;12.43;;;13.10;96.70;;;;;;4982787;28;20129;-75
2023/02/04 11:12:43;;;;;;;19.83;13.55;;;13.10;96.70;;;;;;4982232;28;20038;-74
2023/02/04 11:15:43;;;;;;;17.00;11.73;;;13.10;96.70;;;;;;4981781;28;20246;-73
2023/02/04 11:18:25;;;;;;;16.10;11.40;;;13.10;96.70;;;;;;4977519;28;20038;-74
2023/02/04 11:20:55;;;;;;;14.88;10.30;;;13.00;96.70;;;;;;4983001;28;20136;-74
2023/02/04 11:23:35;;;;;;;16.80;11.65;;;12.90;96.70;;;;;;4982119;28;20046;-74
2023/02/04 11:26:10;;;;;;;20.95;12.30;;;13.00;96.70;;;;;;4974810;28;20501;-74
2023/02/04 11:28:50;;;;;;;16.92;11.43;;;13.20;96.70;;;;;;4981532;28;20046;-74
2023/02/04 11:31:40;;;;;;;18.83;12.40;;;13.30;96.70;;;;;;4983577;28;20081;-74
2023/02/04 11:34:12;;;;;;;17.10;11.65;;;13.30;96.70;;;;;;4977888;28;20100;-78
2023/02/04 11:37:15;;;;;;;16.05;11.00;;;13.50;96.70;;;;;;4982728;28;20678;-74
2023/02/04 11:39:46;;;;;;;16.10;8.52;;;13.60;96.70;;;;;;4899523;29;20146;-75
2023/02/04 11:42:20;;;;;;;15.55;9.30;;;13.80;96.70;;;;;;4966493;28;20052;-75
2023/02/04 11:44:53;;;;;;;14.75;9.10;;;13.90;96.70;;;;;;4981339;28;20046;-75
2023/02/04 11:47:24;;;;;;;16.50;8.50;;;14.00;96.70;;;;;;4981050;28;20337;-75
2023/02/04 11:49:56;;;;;;;11.93;6.20;;;14.20;96.70;;;;;;4975597;28;20120;-75
2023/02/04 11:52:24;;;;;;;10.18;6.38;;;14.30;96.70;;;;;;4982833;28;20046;-75
2023/02/04 11:54:55;;;;;;;13.75;6.13;;;14.40;96.70;;;;;;4982553;28;20145;-74
2023/02/04 11:57:23;;;;;;;12.43;5.97;;;14.60;96.70;;;;;;4981343;28;20058;-74
2023/02/04 11:59:52;;;;;;;11.32;5.53;;;14.70;96.70;;;;;;4982269;28;20057;-74
2023/02/04 12:02:22;;;;;;;10.05;4.63;;;14.70;96.70;;;;;;4984335;28;20520;-73
2023/02/04 12:04:56;;;;;;;11.32;4.45;;;14.70;96.70;;;;;;4985120;28;20519;-75
2023/02/04 12:07:27;;;;;;;8.88;4.45;;;14.80;96.70;;;;;;4985038;28;20065;-74
2023/02/04 12:09:57;;;;;;;8.65;4.75;;;14.90;96.70;;;;;;4980417;28;20046;-74
2023/02/04 12:12:29;;;;;;;6.63;3.35;;;15.10;96.70;;;;;;4984733;28;20081;-74
2023/02/04 12:15:03;;;;;;;9.25;3.10;;;15.10;96.70;;;;;;4985053;28;20409;-74
2023/02/04 12:17:31;;;;;;;6.18;3.28;;;15.10;96.70;;;;;;4986322;28;20513;-74
2023/02/04 12:19:59;;;;;;;9.90;4.15;;;15.10;96.70;;;;;;4986646;28;20850;-74
2023/02/04 12:22:27;;;;;;;10.52;4.50;;;15.20;96.70;;;;;;4986570;28;20500;-74
2023/02/04 12:24:56;;;;;;;7.25;3.85;;;15.20;96.70;;;;;;4984259;28;20042;-73
2023/02/04 12:27:25;;;;;;;9.15;3.50;;;15.20;96.70;;;;;;4984565;28;20178;-74
2023/02/04 12:29:53;;;;;;;7.65;3.67;;;15.20;96.70;;;;;;4984718;28;20069;-74
2023/02/04 12:32:21;;;;;;;7.68;3.95;;;15.30;96.70;;;;;;4984700;28;20069;-73
2023/02/04 12:34:49;;;;;;;7.25;2.67;;;15.40;96.70;;;;;;4984655;28;20500;-74
2023/02/04 12:37:17;;;;;;;6.47;3.03;;;15.40;96.70;;;;;;4984035;28;20156;-75
2023/02/04 12:39:45;;;;;;;9.35;2.95;;;15.30;96.70;;;;;;4985907;28;20129;-75
2023/02/04 12:42:15;;;;;;;7.15;2.78;;;15.30;96.70;;;;;;4984283;28;20057;-74
2023/02/04 12:44:43;;;;;;;8.00;2.92;;;15.50;96.70;;;;;;4985780;28;20046;-75
2023/02/04 12:47:11;;;;;;;5.90;2.67;;;15.70;96.70;;;;;;4984403;28;20069;-74
2023/02/04 12:49:39;;;;;;;7.32;2.65;;;15.80;96.70;;;;;;4983922;28;20858;-74
2023/02/04 12:52:07;;;;;;;7.80;2.85;;;15.90;96.70;;;;;;4986050;28;20058;-74
2023/02/04 12:54:35;;;;;;;6.82;2.88;;;16.00;96.70;;;;;;4984124;28;20050;-75
2023/02/04 12:57:03;;;;;;;8.15;3.33;;;16.00;96.70;;;;;;4983825;28;20508;-74
2023/02/04 12:59:33;;;;;;;7.20;2.67;;;16.00;96.70;;;;;;4985637;28;20108;-74